Time;durP1;ratioP1;P1;durP2;ratioP2;P2;SDS_P1;SDS_P2;PMS_P1;PMS_P2;Temp;Humidity;BMP_temperature;BMP_pressure;BME280_temperature;BME280_humidity;BME280_pressure;Samples;Min_cycle;Max_cycle;Signal;HPM_P1;HPM_P2
2022/01/30 00:00:42;;;;;;;8.68;4.05;;;-0.50;99.90;;;;;;5075894;28;20041;-87
2022/01/30 00:03:07;;;;;;;6.35;3.53;;;-0.60;99.90;;;;;;5059370;28;20111;-87
2022/01/30 00:05:34;;;;;;;6.65;3.38;;;-0.80;99.90;;;;;;5059482;28;20055;-87
2022/01/30 00:08:01;;;;;;;6.22;3.63;;;-0.90;99.90;;;;;;5059348;28;20017;-88
2022/01/30 00:10:27;;;;;;;8.18;4.20;;;-0.90;99.90;;;;;;5059508;28;20025;-87
2022/01/30 00:12:59;;;;;;;7.43;3.45;;;-1.00;99.90;;;;;;5059659;28;20024;-87
2022/01/30 00:21:13;;;;;;;11.77;4.68;;;-1.10;99.90;;;;;;4995913;28;20038;-87
2022/01/30 00:23:47;;;;;;;9.75;4.32;;;-1.20;99.90;;;;;;5034344;28;20036;-87
2022/01/30 00:26:15;;;;;;;9.35;4.82;;;-1.20;99.90;;;;;;5059079;28;20017;-87
2022/01/30 00:28:41;;;;;;;11.45;4.68;;;-1.20;99.90;;;;;;5058856;28;20021;-87
2022/01/30 00:31:07;;;;;;;7.90;4.50;;;-1.20;99.90;;;;;;5058962;28;20078;-87
2022/01/30 00:33:33;;;;;;;12.30;5.55;;;-1.30;99.90;;;;;;5058540;28;20497;-87
2022/01/30 00:35:58;;;;;;;14.98;5.57;;;-1.30;99.90;;;;;;5059105;28;20024;-87
2022/01/30 00:38:26;;;;;;;11.65;6.47;;;-1.30;99.90;;;;;;5058872;28;20508;-86
2022/01/30 00:40:52;;;;;;;9.68;5.22;;;-1.40;99.90;;;;;;5058647;28;20024;-87
2022/01/30 00:43:18;;;;;;;10.90;5.22;;;-1.40;99.90;;;;;;5076509;28;20455;-87
2022/01/30 00:45:46;;;;;;;8.02;4.95;;;-1.40;99.90;;;;;;5058715;28;20025;-87
2022/01/30 00:48:12;;;;;;;7.05;4.20;;;-1.40;99.90;;;;;;5058606;28;20027;-87
2022/01/30 00:50:38;;;;;;;8.85;4.65;;;-1.50;99.90;;;;;;5058601;28;20024;-87
2022/01/30 00:53:04;;;;;;;7.22;4.40;;;-1.50;99.90;;;;;;5076351;28;20035;-87
2022/01/30 00:55:31;;;;;;;9.90;5.35;;;-1.50;99.90;;;;;;5058632;28;20088;-87
2022/01/30 00:57:58;;;;;;;7.85;4.65;;;-1.50;99.90;;;;;;5058483;28;20031;-87
2022/01/30 01:00:25;;;;;;;8.20;4.57;;;-1.50;99.90;;;;;;5076116;28;20463;-87
2022/01/30 01:02:51;;;;;;;6.90;4.70;;;-1.50;99.90;;;;;;5058255;28;20036;-87
2022/01/30 01:05:17;;;;;;;10.60;5.28;;;-1.50;99.90;;;;;;5058274;28;20017;-87
2022/01/30 01:07:46;;;;;;;6.70;4.60;;;-1.60;99.90;;;;;;5058285;28;20153;-87
2022/01/30 01:25:53;;;;;;;9.35;4.55;;;-1.60;99.90;;;;;;5076315;28;20107;-87
2022/01/30 01:28:19;;;;;;;9.30;5.03;;;-1.50;99.90;;;;;;5057872;28;20524;-87
2022/01/30 01:30:45;;;;;;;8.85;5.40;;;-1.50;99.90;;;;;;5075463;28;20020;-87
2022/01/30 01:33:12;;;;;;;19.08;8.75;;;-1.60;99.90;;;;;;5075475;28;20048;-87
2022/01/30 01:35:37;;;;;;;12.43;5.63;;;-1.60;99.90;;;;;;5057960;28;20429;-87
2022/01/30 01:38:04;;;;;;;15.13;7.20;;;-1.60;99.90;;;;;;5075687;28;20021;-88
2022/01/30 01:40:30;;;;;;;10.50;6.57;;;-1.60;99.90;;;;;;5057923;28;20383;-87
2022/01/30 01:43:00;;;;;;;13.10;6.40;;;-1.60;99.90;;;;;;5057730;28;20033;-87
2022/01/30 01:45:32;;;;;;;;;;;-1.60;99.90;;;;;;5057306;28;20079;-87
2022/01/30 01:48:02;;;;;;;13.13;6.75;;;-1.60;99.90;;;;;;5057639;28;19955;-87
2022/01/30 01:50:38;;;;;;;10.48;5.60;;;-1.60;99.90;;;;;;5057924;28;20162;-87
2022/01/30 01:53:07;;;;;;;14.52;6.15;;;-1.60;99.90;;;;;;5057529;28;20025;-87
2022/01/30 01:55:33;;;;;;;16.63;7.20;;;-1.60;99.90;;;;;;5057622;28;20109;-87
2022/01/30 01:57:58;;;;;;;10.38;5.57;;;-1.60;99.90;;;;;;5075272;28;20067;-87
2022/01/30 02:00:24;;;;;;;14.43;5.47;;;-1.60;99.90;;;;;;5057120;28;20021;-87
2022/01/30 02:02:50;;;;;;;9.90;5.85;;;-1.50;99.90;;;;;;5057403;28;20029;-87
2022/01/30 02:05:16;;;;;;;12.02;5.80;;;-1.50;99.90;;;;;;5057289;28;20485;-88
2022/01/30 02:10:23;;;;;;;10.07;5.28;;;-1.50;99.90;;;;;;5075233;28;20029;-87
2022/01/30 02:12:52;;;;;;;11.65;5.32;;;-1.50;99.90;;;;;;5057259;28;20102;-88
2022/01/30 02:25:58;;;;;;;12.40;5.78;;;-1.40;99.90;;;;;;5075320;28;20213;-88
2022/01/30 02:28:26;;;;;;;7.78;5.07;;;-1.40;99.90;;;;;;5057305;28;20048;-87
2022/01/30 02:31:02;;;;;;;11.10;5.32;;;-1.50;99.90;;;;;;5056921;28;20020;-87
2022/01/30 02:33:28;;;;;;;12.10;5.53;;;-1.50;99.90;;;;;;5057029;28;20021;-87
2022/01/30 02:35:54;;;;;;;9.45;5.95;;;-1.50;99.90;;;;;;5074685;28;20027;-87
2022/01/30 02:38:21;;;;;;;10.32;6.03;;;-1.50;99.90;;;;;;5057213;28;20410;-87
2022/01/30 02:40:48;;;;;;;14.68;6.70;;;-1.50;99.90;;;;;;5056723;28;20470;-88
2022/01/30 02:43:18;;;;;;;17.45;7.93;;;-1.50;99.90;;;;;;5057063;28;20017;-88
2022/01/30 02:45:49;;;;;;;17.73;7.57;;;-1.40;99.90;;;;;;5056728;28;20119;-88
2022/01/30 02:48:19;;;;;;;15.05;7.20;;;-1.40;99.90;;;;;;5056711;28;20086;-87
2022/01/30 02:53:15;;;;;;;9.60;4.93;;;-1.40;99.90;;;;;;5074452;28;20424;-87
2022/01/30 02:55:41;;;;;;;10.40;5.78;;;-1.40;99.90;;;;;;5056571;28;20099;-87
2022/01/30 02:58:06;;;;;;;9.70;6.05;;;-1.40;99.90;;;;;;5056568;28;20066;-87
2022/01/30 03:00:33;;;;;;;10.13;6.00;;;-1.40;99.90;;;;;;5074404;28;20048;-87
2022/01/30 03:02:58;;;;;;;13.07;5.53;;;-1.40;99.90;;;;;;5056476;28;20025;-87
2022/01/30 03:05:24;;;;;;;10.93;5.15;;;-1.40;99.90;;;;;;5056540;28;20082;-87
2022/01/30 03:07:52;;;;;;;9.75;4.90;;;-1.40;99.90;;;;;;5056476;28;20029;-87
2022/01/30 03:10:17;;;;;;;7.50;5.32;;;-1.40;99.90;;;;;;5056473;28;20021;-87
2022/01/30 03:12:44;;;;;;;9.07;5.35;;;-1.40;99.90;;;;;;5056464;28;20057;-86
2022/01/30 03:15:17;;;;;;;8.50;5.72;;;-1.40;99.90;;;;;;5056452;28;20016;-87
2022/01/30 03:17:43;;;;;;;11.02;6.43;;;-1.40;99.90;;;;;;5056497;28;20024;-87
2022/01/30 03:20:10;;;;;;;9.30;4.78;;;-1.40;99.90;;;;;;5057568;28;20028;-88
2022/01/30 03:22:36;;;;;;;7.80;4.82;;;-1.30;99.90;;;;;;5056286;28;20060;-87
2022/01/30 03:25:02;;;;;;;7.60;3.92;;;-1.30;99.90;;;;;;5056395;28;20063;-88
2022/01/30 03:27:29;;;;;;;9.93;4.60;;;-1.30;99.90;;;;;;5056229;28;20454;-87
2022/01/30 03:30:03;;;;;;;9.88;4.57;;;-1.20;99.90;;;;;;5056255;28;20421;-88
2022/01/30 03:32:29;;;;;;;9.93;4.22;;;-1.20;99.90;;;;;;5074023;28;20373;-88
2022/01/30 03:34:55;;;;;;;8.73;4.47;;;-1.10;99.90;;;;;;5056191;28;20025;-87
2022/01/30 03:37:21;;;;;;;6.88;4.40;;;-1.20;99.90;;;;;;5056131;28;20038;-87
2022/01/30 03:39:46;;;;;;;10.07;4.40;;;-1.10;99.90;;;;;;5056303;28;20027;-88
2022/01/30 03:42:12;;;;;;;7.95;4.40;;;-1.10;99.90;;;;;;5073734;28;20078;-87
2022/01/30 03:44:38;;;;;;;10.00;4.05;;;-1.10;99.90;;;;;;5056170;28;20537;-88
2022/01/30 03:47:08;;;;;;;6.93;3.80;;;-1.10;99.90;;;;;;5056143;28;20134;-88
2022/01/30 03:49:34;;;;;;;5.60;3.78;;;-1.00;99.90;;;;;;5056319;28;20065;-87
2022/01/30 03:52:00;;;;;;;8.23;4.38;;;-1.00;99.90;;;;;;5055984;28;20029;-88
2022/01/30 03:54:26;;;;;;;7.85;3.78;;;-1.00;99.90;;;;;;5056005;28;20032;-88
2022/01/30 03:56:51;;;;;;;7.28;4.03;;;-1.00;99.90;;;;;;5056025;28;20028;-88
2022/01/30 03:59:17;;;;;;;9.52;3.75;;;-1.00;99.90;;;;;;5056078;28;20028;-87
2022/01/30 04:01:43;;;;;;;5.30;3.55;;;-1.00;99.90;;;;;;5064181;28;20055;-88
2022/01/30 04:04:08;;;;;;;5.38;3.25;;;-0.90;99.90;;;;;;5072601;28;20051;-87
2022/01/30 04:06:34;;;;;;;7.50;3.60;;;-0.90;99.90;;;;;;5072615;28;20467;-87
2022/01/30 04:09:00;;;;;;;5.93;3.67;;;-0.90;99.90;;;;;;5075164;28;20107;-88
2022/01/30 04:11:28;;;;;;;6.38;3.30;;;-0.90;99.90;;;;;;5076156;28;20078;-88
2022/01/30 04:13:54;;;;;;;8.18;3.78;;;-0.90;99.90;;;;;;5076201;28;20549;-88
2022/01/30 04:16:20;;;;;;;7.38;3.40;;;-0.80;99.90;;;;;;5076640;28;20025;-88
2022/01/30 04:18:45;;;;;;;7.75;4.97;;;-0.80;99.90;;;;;;5077018;28;20028;-87
2022/01/30 04:21:11;;;;;;;8.95;3.95;;;-0.80;99.90;;;;;;5077338;28;20375;-87
2022/01/30 04:23:39;;;;;;;15.02;6.47;;;-0.80;99.90;;;;;;5076978;28;20039;-87
2022/01/30 04:26:05;;;;;;;9.00;4.60;;;-0.80;99.90;;;;;;5076157;28;20044;-88
2022/01/30 04:28:31;;;;;;;10.18;6.28;;;-0.70;99.90;;;;;;5075868;28;20486;-87
2022/01/30 04:30:57;;;;;;;10.82;5.53;;;-0.70;99.90;;;;;;5075921;28;20036;-87
2022/01/30 04:33:23;;;;;;;7.22;3.60;;;-0.80;99.90;;;;;;5075716;28;20031;-88
2022/01/30 04:35:49;;;;;;;4.93;3.50;;;-0.80;99.90;;;;;;5075666;28;20082;-87
2022/01/30 04:38:19;;;;;;;6.60;3.08;;;-0.70;99.70;;;;;;5075603;28;20024;-87
2022/01/30 05:07:37;;;;;;;12.32;5.97;;;-0.70;99.90;;;;;;5076275;28;20016;-87
2022/01/30 05:10:03;;;;;;;10.38;6.32;;;-0.80;99.90;;;;;;5058352;28;20047;-87
2022/01/30 05:12:42;;;;;;;12.38;5.90;;;-0.80;99.90;;;;;;5058184;28;20024;-87
2022/01/30 05:15:08;;;;;;;9.50;5.45;;;-0.80;99.90;;;;;;5058254;28;20020;-87
2022/01/30 05:17:34;;;;;;;11.15;5.00;;;-0.80;99.90;;;;;;5075934;28;20025;-87
2022/01/30 05:20:02;;;;;;;10.32;5.53;;;-0.80;99.90;;;;;;5058203;28;20127;-87
2022/01/30 05:22:28;;;;;;;9.82;4.45;;;-0.80;99.90;;;;;;5075809;28;20028;-88
2022/01/30 05:24:54;;;;;;;18.70;10.52;;;-0.80;99.90;;;;;;5058049;28;20093;-87
2022/01/30 05:27:20;;;;;;;15.30;6.15;;;-0.80;99.90;;;;;;5058052;28;20534;-88
2022/01/30 05:29:47;;;;;;;12.25;6.25;;;-0.80;99.90;;;;;;5075490;28;20028;-86
2022/01/30 05:32:16;;;;;;;12.45;5.53;;;-0.70;99.90;;;;;;5058043;28;20112;-90
2022/01/30 05:34:42;;;;;;;13.60;7.22;;;-0.80;99.90;;;;;;5057782;28;20028;-92
2022/01/30 05:37:11;;;;;;;11.10;6.30;;;-0.80;99.90;;;;;;5057940;28;20466;-95
2022/01/30 05:39:37;;;;;;;14.90;8.10;;;-0.70;99.90;;;;;;5057778;28;20475;-93
